Time;durP1;ratioP1;P1;durP2;ratioP2;P2;SDS_P1;SDS_P2;PMS_P1;PMS_P2;Temp;Humidity;BMP_temperature;BMP_pressure;BME280_temperature;BME280_humidity;BME280_pressure;Samples;Min_cycle;Max_cycle;Signal;HPM_P1;HPM_P2
2022/10/05 00:00:21;;;;;;;4.10;3.83;;;;;;;13.38;76.73;100272.59;5132865;27;20674;-61
2022/10/05 00:02:48;;;;;;;4.10;3.80;;;;;;;13.48;76.59;100284.50;5132573;27;20204;-61
2022/10/05 00:05:23;;;;;;;4.03;3.80;;;;;;;13.45;76.91;100289.78;5131449;27;20298;-55
2022/10/05 00:07:51;;;;;;;3.97;3.77;;;;;;;13.43;77.07;100295.03;5132566;27;20292;-54
2022/10/05 00:10:19;;;;;;;4.17;3.90;;;;;;;13.44;77.05;100296.75;5132811;27;20572;-61
2022/10/05 00:12:48;;;;;;;4.40;4.03;;;;;;;13.47;76.55;100293.19;5132425;27;20198;-60
2022/10/05 00:15:18;;;;;;;3.77;3.57;;;;;;;13.43;76.55;100291.59;5131303;27;20451;-61
2022/10/05 00:17:45;;;;;;;4.57;4.10;;;;;;;13.38;76.86;100285.66;5132194;27;20194;-55
2022/10/05 00:20:19;;;;;;;4.37;4.07;;;;;;;13.31;77.54;100291.94;5132351;27;20719;-53
2022/10/05 00:22:47;;;;;;;4.00;3.80;;;;;;;13.25;77.58;100273.84;5132181;27;20212;-61
2022/10/05 00:25:18;;;;;;;4.10;3.77;;;;;;;13.28;78.26;100294.63;5131522;27;20186;-54
2022/10/05 00:27:52;;;;;;;4.37;4.03;;;;;;;13.23;78.55;100293.88;5129457;27;20672;-54
2022/10/05 00:30:21;;;;;;;4.30;4.00;;;;;;;13.17;78.02;100294.06;5128760;27;20198;-54
2022/10/05 00:32:48;;;;;;;4.43;4.07;;;;;;;13.12;78.34;100301.09;5132097;27;20225;-55
2022/10/05 00:35:16;;;;;;;4.37;4.07;;;;;;;13.09;78.04;100296.84;5132173;27;20280;-54
2022/10/05 00:37:44;;;;;;;5.10;4.70;;;;;;;13.04;78.05;100298.72;5131991;27;20198;-55
2022/10/05 00:40:24;;;;;;;5.87;4.73;;;;;;;13.01;78.13;100299.63;5131810;27;20594;-55
2022/10/05 00:43:07;;;;;;;6.67;4.80;;;;;;;12.91;77.94;100297.31;5131696;27;20288;-55
2022/10/05 00:45:38;;;;;;;5.07;4.57;;;;;;;12.89;77.95;100289.53;5131739;27;20288;-55
2022/10/05 00:48:16;;;;;;;6.07;4.83;;;;;;;12.86;78.31;100294.84;5131773;27;20205;-55
2022/10/05 00:50:55;;;;;;;5.87;5.37;;;;;;;12.89;78.44;100286.06;5131381;27;20193;-55
2022/10/05 00:53:34;;;;;;;4.90;4.50;;;;;;;12.86;78.23;100289.63;5131517;27;20193;-61
2022/10/05 00:56:07;;;;;;;5.73;4.43;;;;;;;12.85;78.38;100280.09;5131590;27;20262;-54
2022/10/05 00:58:52;;;;;;;4.90;4.60;;;;;;;12.84;78.67;100288.81;5131419;27;20574;-54
2022/10/05 01:01:26;;;;;;;5.70;5.20;;;;;;;12.77;79.24;100289.84;5131644;27;20284;-54
2022/10/05 01:04:04;;;;;;;4.93;4.60;;;;;;;12.72;78.75;100283.91;5131432;27;20194;-55
2022/10/05 01:06:41;;;;;;;5.27;4.83;;;;;;;12.69;78.97;100294.41;5131396;27;20681;-60
2022/10/05 01:09:15;;;;;;;5.80;5.23;;;;;;;12.70;78.90;100283.09;5131300;27;20200;-53
2022/10/05 01:11:47;;;;;;;5.73;4.97;;;;;;;12.70;78.82;100290.91;5131086;27;20205;-54
2022/10/05 01:14:22;;;;;;;5.43;5.03;;;;;;;12.62;79.22;100290.25;5131108;27;20197;-61
2022/10/05 01:16:56;;;;;;;5.27;4.70;;;;;;;12.62;79.13;100283.28;5130950;27;20679;-62
2022/10/05 01:19:39;;;;;;;6.80;5.20;;;;;;;12.50;79.04;100286.19;5131345;27;20225;-61
2022/10/05 01:22:19;;;;;;;5.37;4.33;;;;;;;12.50;79.09;100293.16;5131061;27;20204;-62
2022/10/05 01:25:01;;;;;;;4.83;4.43;;;;;;;12.45;79.32;100292.38;5131118;27;20589;-63
2022/10/05 01:27:49;;;;;;;5.20;4.90;;;;;;;12.38;79.64;100283.88;5130782;27;20489;-63
2022/10/05 01:30:18;;;;;;;5.30;5.00;;;;;;;12.29;80.24;100287.56;5131365;27;20661;-63
2022/10/05 01:32:54;;;;;;;8.37;4.73;;;;;;;12.10;80.73;100268.03;5130763;27;20204;-62
2022/10/05 01:35:43;;;;;;;5.30;5.00;;;;;;;12.14;80.29;100271.44;5130804;27;20204;-55
2022/10/05 01:38:22;;;;;;;5.30;4.90;;;;;;;12.26;80.65;100302.38;5130819;27;20200;-55
2022/10/05 01:40:58;;;;;;;4.37;4.10;;;;;;;12.30;80.48;100294.44;5130630;27;20289;-55
2022/10/05 01:43:34;;;;;;;5.60;4.17;;;;;;;12.31;80.13;100303.97;5130866;27;20587;-54
2022/10/05 01:46:11;;;;;;;5.33;4.90;;;;;;;12.33;80.29;100302.19;5130722;27;20699;-54
2022/10/05 01:48:49;;;;;;;4.90;4.53;;;;;;;12.33;80.25;100309.16;5130639;27;20186;-53
2022/10/05 01:51:22;;;;;;;6.57;4.40;;;;;;;12.31;80.28;100306.59;5130739;27;20292;-55
2022/10/05 01:54:00;;;;;;;4.60;4.30;;;;;;;12.33;80.22;100319.56;5130203;27;20288;-54
2022/10/05 01:56:36;;;;;;;5.10;4.70;;;;;;;12.36;80.25;100322.97;5130851;27;20193;-54
2022/10/05 01:59:15;;;;;;;4.63;4.33;;;;;;;12.38;80.13;100322.94;5130759;27;20223;-55
2022/10/05 02:01:50;;;;;;;5.03;4.63;;;;;;;12.32;80.57;100316.09;5130475;27;20200;-54
2022/10/05 02:04:23;;;;;;;5.27;4.97;;;;;;;12.34;80.22;100321.28;5130384;27;20722;-54
2022/10/05 02:06:52;;;;;;;4.93;4.53;;;;;;;12.31;80.49;100319.59;5130481;27;20629;-54
2022/10/05 02:09:22;;;;;;;4.43;4.23;;;;;;;12.31;80.21;100332.63;5130336;27;20190;-54
2022/10/05 02:11:56;;;;;;;5.13;4.63;;;;;;;12.23;80.02;100313.72;5130626;27;20200;-54
2022/10/05 02:14:28;;;;;;;4.23;4.03;;;;;;;12.35;80.04;100339.47;5130338;28;20689;-61
2022/10/05 02:16:59;;;;;;;4.37;4.07;;;;;;;12.43;79.36;100338.44;5130409;28;20266;-55
2022/10/05 02:19:31;;;;;;;5.23;4.33;;;;;;;12.47;78.51;100347.88;5130481;28;20228;-55
2022/10/05 02:22:06;;;;;;;4.67;4.37;;;;;;;12.49;78.25;100359.13;5130403;28;20204;-54
2022/10/05 02:24:38;;;;;;;4.93;4.63;;;;;;;12.47;78.17;100353.09;5130229;28;20197;-54
2022/10/05 02:27:07;;;;;;;4.97;4.67;;;;;;;12.42;77.97;100352.34;5129971;27;20285;-54
2022/10/05 02:29:39;;;;;;;4.63;4.40;;;;;;;12.46;77.60;100354.00;5134294;27;20228;-54
2022/10/05 02:32:13;;;;;;;5.10;4.70;;;;;;;12.52;77.40;100372.09;5134620;27;20580;-54
2022/10/05 02:34:41;;;;;;;5.13;4.77;;;;;;;12.33;77.34;100338.66;5134511;27;20549;-54
2022/10/05 02:37:22;;;;;;;5.20;4.80;;;;;;;12.46;77.79;100369.63;5134031;27;20196;-54
2022/10/05 02:40:09;;;;;;;4.63;4.33;;;;;;;12.35;78.40;100378.53;5134389;27;20228;-61
2022/10/05 02:42:47;;;;;;;5.10;4.70;;;;;;;12.36;78.02;100382.84;5134082;27;20202;-54
2022/10/05 02:45:23;;;;;;;5.40;5.00;;;;;;;12.31;78.01;100381.22;5134062;27;20193;-54
2022/10/05 02:47:59;;;;;;;5.50;5.00;;;;;;;12.23;78.64;100370.97;5133681;27;20236;-54
2022/10/05 02:50:36;;;;;;;5.30;4.90;;;;;;;12.19;79.10;100379.72;5133980;27;20653;-54
2022/10/05 02:53:16;;;;;;;4.93;4.63;;;;;;;12.14;79.78;100385.94;5134050;27;20315;-55
2022/10/05 02:55:52;;;;;;;4.83;4.53;;;;;;;12.08;80.27;100386.91;5133804;27;20197;-54
2022/10/05 02:58:23;;;;;;;4.80;4.07;;;;;;;11.92;81.42;100380.34;5133652;27;20204;-54
2022/10/05 03:01:00;;;;;;;4.87;4.57;;;;;;;12.02;81.37;100386.19;5133669;27;20213;-54
2022/10/05 03:03:35;;;;;;;5.27;4.80;;;;;;;11.98;82.03;100388.84;5133876;27;20711;-54
2022/10/05 03:06:05;;;;;;;5.40;4.93;;;;;;;11.99;82.40;100387.13;5133117;27;20712;-53
2022/10/05 03:08:37;;;;;;;5.53;5.03;;;;;;;11.99;82.54;100392.31;5133362;27;20681;-59
2022/10/05 03:11:15;;;;;;;8.10;4.93;;;;;;;11.95;83.20;100385.47;5133850;27;20578;-59
2022/10/05 03:13:48;;;;;;;5.80;4.67;;;;;;;11.94;83.67;100387.22;5133539;27;20280;-59
2022/10/05 03:16:27;;;;;;;5.40;4.97;;;;;;;11.68;83.36;100349.59;5133610;27;20198;-59
2022/10/05 03:19:09;;;;;;;5.67;5.37;;;;;;;11.83;84.13;100381.38;5133328;27;20681;-59
2022/10/05 03:21:48;;;;;;;6.00;5.47;;;;;;;11.91;83.97;100376.00;5133386;27;20240;-53
2022/10/05 03:24:31;;;;;;;7.23;5.43;;;;;;;11.94;83.70;100384.63;5133471;27;20200;-53
2022/10/05 03:27:04;;;;;;;5.23;4.83;;;;;;;11.93;84.16;100382.06;5131813;27;20212;-54
2022/10/05 03:29:39;;;;;;;6.10;5.30;;;;;;;11.96;84.44;100395.84;5112170;28;20256;-54
2022/10/05 03:32:17;;;;;;;5.60;5.10;;;;;;;11.96;83.98;100389.81;5112196;28;20292;-53
2022/10/05 03:34:48;;;;;;;6.93;4.93;;;;;;;12.05;83.89;100392.22;5112714;28;20641;-54
2022/10/05 03:37:22;;;;;;;5.33;5.03;;;;;;;11.89;83.51;100364.78;5112553;28;20199;-53
2022/10/05 03:39:57;;;;;;;5.43;4.93;;;;;;;12.04;83.46;100390.50;5117052;27;20209;-54
2022/10/05 03:42:32;;;;;;;4.93;4.63;;;;;;;12.04;83.52;100400.03;5129622;27;20204;-54
2022/10/05 03:45:09;;;;;;;6.20;5.00;;;;;;;11.92;83.84;100406.34;5133056;27;20661;-54
2022/10/05 03:47:45;;;;;;;5.17;4.73;;;;;;;11.95;84.22;100404.56;5131425;27;20707;-55
2022/10/05 03:50:32;;;;;;;5.33;4.93;;;;;;;11.94;84.03;100404.59;5130553;27;20571;-54
2022/10/05 03:53:05;;;;;;;5.27;4.87;;;;;;;11.91;84.59;100404.63;5128643;27;20194;-53
2022/10/05 03:55:40;;;;;;;6.77;5.07;;;;;;;11.93;84.52;100408.06;5132258;27;20723;-54
2022/10/05 03:58:14;;;;;;;5.10;4.70;;;;;;;11.91;84.63;100417.66;5131317;27;20197;-54
2022/10/05 04:00:46;;;;;;;4.77;4.37;;;;;;;11.90;84.78;100408.13;5131184;27;20220;-53
2022/10/05 04:03:21;;;;;;;5.60;4.80;;;;;;;11.99;84.61;100423.53;5131505;27;20294;-54
2022/10/05 04:05:52;;;;;;;5.17;4.33;;;;;;;12.00;84.48;100420.06;5131670;27;20703;-53
2022/10/05 04:08:26;;;;;;;4.90;4.40;;;;;;;11.93;84.80;100426.28;5131774;27;20578;-52
2022/10/05 04:10:57;;;;;;;5.40;4.90;;;;;;;11.88;85.09;100428.09;5131408;27;20665;-54
2022/10/05 04:13:31;;;;;;;5.50;5.10;;;;;;;11.90;85.28;100428.94;5132249;27;20618;-54
2022/10/05 04:16:02;;;;;;;4.93;4.53;;;;;;;11.92;84.95;100424.56;5132249;27;20624;-55
2022/10/05 04:18:34;;;;;;;5.20;4.70;;;;;;;11.95;85.00;100432.31;5132308;27;20556;-61
2022/10/05 04:21:07;;;;;;;8.83;5.00;;;;;;;11.91;85.04;100438.44;5132202;27;20228;-62
2022/10/05 04:23:43;;;;;;;5.90;5.40;;;;;;;11.94;84.43;100436.66;5131733;27;20193;-62
2022/10/05 04:26:14;;;;;;;5.97;5.43;;;;;;;11.98;84.25;100446.09;5130757;27;20189;-61
2022/10/05 04:28:51;;;;;;;5.40;5.00;;;;;;;11.94;84.12;100451.41;5130441;27;20222;-62
2022/10/05 04:31:40;;;;;;;6.17;5.40;;;;;;;12.01;83.70;100453.00;5128840;27;20186;-55
2022/10/05 04:34:21;;;;;;;5.80;5.30;;;;;;;12.13;83.13;100446.69;5131693;27;20591;-55
2022/10/05 04:36:58;;;;;;;6.13;5.20;;;;;;;12.15;82.58;100445.78;5130642;27;20307;-52
2022/10/05 04:39:37;;;;;;;6.40;4.97;;;;;;;12.19;82.23;100450.00;5130325;27;20283;-53
2022/10/05 04:42:13;;;;;;;5.30;4.80;;;;;;;12.24;81.21;100447.31;5131794;27;20193;-54
2022/10/05 04:44:58;;;;;;;5.30;4.90;;;;;;;12.25;80.96;100443.84;5131612;27;20201;-62
2022/10/05 04:47:42;;;;;;;5.50;4.93;;;;;;;12.35;80.39;100448.81;5130622;27;20273;-62
2022/10/05 04:50:22;;;;;;;5.23;4.80;;;;;;;12.41;80.30;100453.06;5129795;27;20702;-62
2022/10/05 04:52:59;;;;;;;8.73;5.83;;;;;;;12.41;80.04;100462.59;5131108;27;20197;-62
2022/10/05 04:55:35;;;;;;;6.90;5.43;;;;;;;12.48;80.00;100474.59;5131838;27;20581;-62
2022/10/05 04:58:10;;;;;;;8.60;5.50;;;;;;;12.56;79.21;100473.53;5130592;27;20193;-62
2022/10/05 05:00:51;;;;;;;11.33;7.67;;;;;;;12.61;79.17;100476.91;5129841;27;20209;-62
2022/10/05 05:03:50;;;;;;;8.30;6.07;;;;;;;12.63;79.05;100474.28;5127267;27;20190;-62
2022/10/05 05:06:30;;;;;;;7.03;6.33;;;;;;;12.71;79.10;100477.56;5103624;27;20190;-62
2022/10/05 05:09:26;;;;;;;9.23;6.63;;;;;;;12.73;78.94;100473.19;5129733;27;20190;-62
2022/10/05 05:12:06;;;;;;;9.50;5.80;;;;;;;12.79;78.52;100473.03;5129013;27;20205;-55
2022/10/05 05:15:07;;;;;;;6.93;5.90;;;;;;;12.92;78.20;100481.44;5129849;27;20216;-55
2022/10/05 05:17:53;;;;;;;5.87;5.23;;;;;;;13.35;76.62;100491.72;5123203;27;20681;-55
2022/10/05 05:20:26;;;;;;;10.07;5.00;;;;;;;14.92;70.16;100489.97;5127188;27;20253;-55
2022/10/05 05:23:05;;;;;;;7.23;4.93;;;;;;;16.85;61.76;100494.56;5129266;27;20198;-63
2022/10/05 05:25:40;;;;;;;10.63;5.23;;;;;;;19.18;53.39;100500.16;5129752;27;20670;-63
2022/10/05 05:28:18;;;;;;;6.13;4.55;;;;;;;21.17;46.01;100507.25;5128592;27;20236;-61
2022/10/05 05:30:52;;;;;;;10.65;4.93;;;;;;;22.91;42.22;100509.06;5130848;27;20192;-63
2022/10/05 05:33:22;;;;;;;5.55;4.47;;;;;;;23.84;38.91;100511.72;5131081;27;20220;-54
2022/10/05 05:36:22;;;;;;;5.20;3.72;;;;;;;24.82;37.28;100529.66;5130913;27;20190;-54
2022/10/05 05:39:02;;;;;;;6.75;4.78;;;;;;;25.72;35.37;100531.03;5130411;27;20197;-54
2022/10/05 05:41:37;;;;;;;6.53;3.80;;;;;;;26.17;34.24;100533.78;5129901;27;20678;-54
2022/10/05 05:44:14;;;;;;;4.30;3.97;;;;;;;26.63;33.91;100541.72;5130081;27;20189;-54
2022/10/05 05:46:48;;;;;;;7.97;3.90;;;;;;;27.22;32.64;100544.06;5129265;27;20197;-55
2022/10/05 05:49:19;;;;;;;4.90;3.70;;;;;;;27.69;31.72;100540.16;5129624;27;20554;-55
2022/10/05 05:51:51;;;;;;;6.47;3.65;;;;;;;28.06;31.05;100545.91;5129600;27;20189;-55
2022/10/05 05:54:24;;;;;;;8.63;3.90;;;;;;;28.00;31.12;100549.94;5129744;27;20280;-54
2022/10/05 05:56:57;;;;;;;8.93;3.47;;;;;;;28.22;31.20;100558.84;5129596;27;20208;-54
2022/10/05 05:59:29;;;;;;;8.60;3.40;;;;;;;28.75;29.93;100554.16;5129070;27;20198;-55
2022/10/05 06:02:04;;;;;;;8.25;3.25;;;;;;;29.50;29.02;100556.31;5125550;27;20236;-54
2022/10/05 06:04:37;;;;;;;5.18;3.15;;;;;;;29.81;28.25;100567.72;5129033;27;20193;-54
2022/10/05 06:07:05;;;;;;;3.70;3.40;;;;;;;30.03;27.91;100580.00;5129091;27;20190;-62
2022/10/05 06:09:40;;;;;;;4.88;3.55;;;;;;;30.17;27.60;100583.06;5128467;27;20957;-63
2022/10/05 06:12:11;;;;;;;3.90;3.33;;;;;;;30.65;27.33;100587.47;5128563;28;20192;-62
2022/10/05 06:14:44;;;;;;;4.57;3.08;;;;;;;31.20;26.88;100585.69;5126705;28;20670;-63
2022/10/05 06:17:18;;;;;;;5.72;3.58;;;;;;;31.19;26.22;100592.03;5128850;28;20198;-63
2022/10/05 06:19:47;;;;;;;3.10;2.78;;;;;;;30.90;26.31;100597.53;5128865;28;20213;-63
2022/10/05 06:22:21;;;;;;;13.15;2.80;;;;;;;31.11;26.11;100605.38;5129037;28;20190;-63
2022/10/05 06:25:03;;;;;;;3.47;3.08;;;;;;;31.01;26.00;100605.38;5129167;28;20194;-54
2022/10/05 06:27:35;;;;;;;3.20;2.80;;;;;;;30.32;26.51;100608.44;5128905;28;20198;-55
2022/10/05 06:30:09;;;;;;;4.40;2.88;;;;;;;30.89;26.10;100611.94;5125783;28;20229;-55
2022/10/05 06:32:54;;;;;;;4.18;3.00;;;;;;;30.46;26.71;100617.00;5128272;28;20209;-54
2022/10/05 06:35:34;;;;;;;4.47;2.90;;;;;;;31.45;26.25;100616.31;5128516;28;20233;-55
2022/10/05 06:38:22;;;;;;;4.25;3.15;;;;;;;32.08;25.72;100616.22;5128016;28;20200;-54
2022/10/05 06:41:01;;;;;;;3.05;2.80;;;;;;;32.03;25.29;100623.94;5125933;28;20209;-54
2022/10/05 06:43:43;;;;;;;4.50;3.10;;;;;;;31.50;26.32;100623.88;5128176;28;20604;-55
2022/10/05 06:46:17;;;;;;;6.57;6.07;;;;;;;31.10;26.94;100626.97;5127848;28;20241;-54
2022/10/05 06:49:00;;;;;;;4.03;3.47;;;;;;;31.92;25.85;100619.66;5129167;28;20200;-54
2022/10/05 06:51:35;;;;;;;5.00;4.63;;;;;;;32.88;24.75;100620.50;5130051;28;20594;-55
2022/10/05 06:54:13;;;;;;;5.38;5.07;;;;;;;33.36;24.37;100622.56;5129405;28;20201;-54
2022/10/05 06:56:48;;;;;;;5.07;3.50;;;;;;;34.73;23.41;100628.16;5129444;28;20312;-54
2022/10/05 06:59:23;;;;;;;4.88;3.15;;;;;;;35.62;22.42;100617.81;5129319;28;20633;-54
2022/10/05 07:01:57;;;;;;;4.53;4.13;;;;;;;36.33;21.72;100618.47;5108764;28;20316;-55
2022/10/05 07:04:42;;;;;;;7.35;3.97;;;;;;;35.66;21.86;100619.16;5109283;28;20598;-63
2022/10/05 07:07:17;;;;;;;4.35;3.85;;;;;;;32.91;23.58;100611.28;5109380;28;20195;-64
2022/10/05 07:09:57;;;;;;;8.80;6.78;;;;;;;29.60;26.61;100611.53;5108907;28;20194;-63
2022/10/05 07:12:50;;;;;;;7.07;5.63;;;;;;;26.65;30.10;100599.19;5117393;28;20194;-63
2022/10/05 07:15:33;;;;;;;20.10;5.15;;;;;;;25.18;32.41;100597.03;5132844;27;20190;-63
2022/10/05 07:18:15;;;;;;;4.53;3.88;;;;;;;24.10;34.65;100600.16;5132603;27;20588;-63
2022/10/05 07:20:50;;;;;;;20.60;4.25;;;;;;;23.36;35.68;100582.09;5132282;27;20302;-63
2022/10/05 07:23:35;;;;;;;9.63;5.43;;;;;;;22.99;36.50;100585.38;5133081;27;20406;-62
2022/10/05 07:26:07;;;;;;;28.15;6.60;;;;;;;21.88;38.43;100600.06;5133227;27;20194;-63
2022/10/05 07:28:45;;;;;;;9.40;4.35;;;;;;;21.61;39.27;100590.13;5133351;27;20220;-63
2022/10/05 07:31:19;;;;;;;10.00;5.13;;;;;;;20.80;40.82;100601.66;5133192;27;20621;-63
2022/10/05 07:33:53;;;;;;;10.10;8.27;;;;;;;20.57;41.81;100596.75;5133424;27;20665;-62
2022/10/05 07:39:24;;;;;;;4.25;3.95;;;;;;;19.94;43.91;100591.22;5133190;27;20238;-63
2022/10/05 07:42:09;;;;;;;5.60;4.07;;;;;;;19.72;44.65;100569.50;5132505;27;20221;-64
2022/10/05 07:44:47;;;;;;;5.57;3.38;;;;;;;20.00;44.40;100585.63;5133170;27;20288;-63
2022/10/05 07:47:21;;;;;;;5.07;3.55;;;;;;;20.06;44.45;100582.69;5133178;27;20190;-63
2022/10/05 07:49:57;;;;;;;6.13;4.05;;;;;;;19.73;44.98;100563.31;5132795;27;20649;-63
2022/10/05 07:52:30;;;;;;;5.05;4.13;;;;;;;19.68;45.65;100586.38;5132779;27;20198;-62
2022/10/05 07:55:03;;;;;;;4.75;3.78;;;;;;;19.86;45.60;100585.50;5132861;27;20292;-63
2022/10/05 07:57:38;;;;;;;3.63;3.42;;;;;;;19.83;45.42;100589.13;5132712;27;20200;-63
2022/10/05 08:00:13;;;;;;;8.90;4.68;;;;;;;20.02;45.29;100591.69;5132686;27;20270;-63
2022/10/05 08:02:45;;;;;;;4.05;3.70;;;;;;;20.18;44.73;100592.63;5132545;27;20224;-63
2022/10/05 08:05:20;;;;;;;4.50;4.10;;;;;;;20.40;44.47;100602.09;5132624;27;20190;-63
2022/10/05 08:07:51;;;;;;;5.82;3.88;;;;;;;20.22;44.40;100566.94;5132594;27;20209;-63
2022/10/05 08:10:28;;;;;;;5.85;3.17;;;;;;;20.30;44.51;100589.34;5132704;27;20280;-62
2022/10/05 08:13:06;;;;;;;6.82;4.95;;;;;;;20.34;44.82;100594.44;5132216;27;20247;-61
2022/10/05 08:15:40;;;;;;;5.72;3.28;;;;;;;20.22;44.78;100595.94;5132732;27;20202;-54
2022/10/05 08:18:17;;;;;;;5.97;4.22;;;;;;;20.42;44.48;100595.81;5132201;27;20194;-53
2022/10/05 08:20:47;;;;;;;4.25;3.45;;;;;;;20.47;44.65;100595.53;5131937;27;20225;-52
2022/10/05 08:23:24;;;;;;;6.50;3.60;;;;;;;20.44;44.96;100595.69;5131999;27;20556;-54
2022/10/05 08:26:05;;;;;;;7.30;3.58;;;;;;;20.36;45.15;100592.63;5131203;27;20202;-54
2022/10/05 08:28:36;;;;;;;6.38;3.80;;;;;;;20.44;44.45;100593.91;5132085;27;20321;-54
2022/10/05 08:31:18;;;;;;;3.28;3.00;;;;;;;20.23;44.11;100558.94;5132093;27;20186;-53
2022/10/05 08:33:55;;;;;;;6.78;4.50;;;;;;;20.48;44.23;100591.97;5131883;27;20292;-55
2022/10/05 08:36:31;;;;;;;8.10;4.40;;;;;;;20.47;44.22;100595.53;5132033;27;20201;-53
2022/10/05 08:39:02;;;;;;;4.00;3.60;;;;;;;20.35;44.22;100573.31;5130955;27;20190;-54
2022/10/05 08:41:55;;;;;;;4.68;3.13;;;;;;;20.40;44.53;100588.91;5131911;27;20230;-62
2022/10/05 08:44:48;;;;;;;3.50;3.20;;;;;;;20.31;44.66;100590.19;5131655;27;20293;-63
2022/10/05 08:47:26;;;;;;;3.55;3.35;;;;;;;20.26;44.64;100585.16;5131945;27;20198;-63
2022/10/05 08:50:17;;;;;;;7.68;3.80;;;;;;;20.16;45.08;100581.28;5131688;27;20221;-62
2022/10/05 08:53:15;;;;;;;3.72;3.30;;;;;;;20.05;44.59;100570.44;5131102;27;20586;-62
2022/10/05 08:55:52;;;;;;;4.70;2.75;;;;;;;19.93;44.65;100557.91;5132527;27;20218;-63
2022/10/05 08:58:38;;;;;;;8.57;3.40;;;;;;;20.04;44.54;100574.00;5129719;27;20194;-62
2022/10/05 09:01:21;;;;;;;5.18;3.08;;;;;;;19.67;45.09;100571.50;5129640;27;20610;-63
2022/10/05 09:04:10;;;;;;;3.13;2.88;;;;;;;19.83;44.71;100568.03;5129852;27;20669;-54
2022/10/05 09:07:07;;;;;;;6.13;2.88;;;;;;;19.88;45.31;100567.78;5129772;27;20695;-55
2022/10/05 09:09:56;;;;;;;3.92;3.10;;;;;;;20.10;44.56;100565.78;5126290;27;20190;-53
2022/10/05 09:12:57;;;;;;;6.25;2.85;;;;;;;20.23;43.89;100561.56;5129943;27;20194;-53
2022/10/05 09:15:51;;;;;;;3.92;2.72;;;;;;;20.07;43.59;100562.47;5130719;27;20746;-53
2022/10/05 09:18:55;;;;;;;3.10;2.90;;;;;;;19.96;43.13;100551.63;5131500;27;20289;-53
2022/10/05 09:21:38;;;;;;;2.95;2.50;;;;;;;20.11;42.61;100553.44;5087755;27;20224;-62
2022/10/05 09:24:18;;;;;;;3.13;2.90;;;;;;;20.01;41.85;100558.34;5130923;27;20196;-61
2022/10/05 09:26:59;;;;;;;2.88;2.67;;;;;;;19.97;42.73;100558.59;5131279;27;20197;-62
2022/10/05 09:29:50;;;;;;;9.07;2.75;;;;;;;19.96;41.75;100559.53;5130976;27;20244;-53
2022/10/05 09:32:42;;;;;;;15.63;10.57;;;;;;;19.92;43.02;100553.53;5130880;27;20190;-53
2022/10/05 09:35:26;;;;;;;5.82;4.43;;;;;;;19.99;42.78;100554.94;5128125;27;20198;-53
2022/10/05 09:38:15;;;;;;;2.28;2.17;;;;;;;20.14;42.98;100555.94;5130604;27;20665;-62
2022/10/05 09:41:14;;;;;;;3.35;3.05;;;;;;;20.27;42.81;100562.28;5130514;27;20198;-54
2022/10/05 09:44:18;;;;;;;4.97;4.38;;;;;;;20.25;42.24;100551.81;5116863;27;20285;-54
2022/10/05 09:47:03;;;;;;;5.30;3.00;;;;;;;20.22;42.44;100553.75;5130688;27;20196;-63
2022/10/05 09:49:51;;;;;;;6.10;4.22;;;;;;;20.25;43.86;100557.09;5130671;27;20190;-61
2022/10/05 09:52:56;;;;;;;3.60;2.58;;;;;;;20.26;42.60;100553.53;5130672;27;20296;-54
2022/10/05 09:56:00;;;;;;;2.78;2.42;;;;;;;20.16;42.59;100554.94;5130669;27;20194;-53
2022/10/05 09:59:09;;;;;;;3.00;2.70;;;;;;;20.19;42.67;100548.66;5130530;27;20254;-53
2022/10/05 10:02:04;;;;;;;10.95;3.10;;;;;;;20.24;41.83;100563.28;5130435;27;20231;-53
2022/10/05 10:05:06;;;;;;;2.95;2.75;;;;;;;20.26;42.37;100566.69;5130518;27;20567;-53
2022/10/05 10:08:00;;;;;;;3.67;2.80;;;;;;;20.08;42.97;100556.28;5130390;27;20211;-54
2022/10/05 10:10:52;;;;;;;3.88;2.55;;;;;;;20.10;42.90;100554.38;5130317;27;20198;-54
2022/10/05 10:13:59;;;;;;;2.67;2.20;;;;;;;20.21;42.64;100558.16;5130624;27;20263;-53
2022/10/05 10:16:52;;;;;;;7.05;2.22;;;;;;;20.26;41.77;100550.88;5130809;28;20198;-62
2022/10/05 10:20:01;;;;;;;2.40;2.20;;;;;;;20.37;40.66;100553.00;5130332;28;20278;-62
2022/10/05 10:22:49;;;;;;;3.80;2.20;;;;;;;20.52;39.94;100546.06;5081773;28;20270;-62
2022/10/05 10:25:48;;;;;;;2.47;2.30;;;;;;;20.67;40.18;100547.84;5130205;28;20217;-53
2022/10/05 10:28:47;;;;;;;2.78;2.10;;;;;;;20.75;39.21;100542.19;5127129;28;20234;-54
2022/10/05 10:31:36;;;;;;;1.90;1.80;;;;;;;20.87;37.99;100544.16;5129834;28;20190;-53
2022/10/05 10:34:21;;;;;;;1.83;1.73;;;;;;;20.96;37.56;100544.50;5128834;28;20232;-61
2022/10/05 10:37:15;;;;;;;1.90;1.80;;;;;;;20.96;37.46;100547.13;5109337;28;20198;-61
2022/10/05 10:40:04;;;;;;;3.00;1.50;;;;;;;20.88;36.51;100549.31;5109817;28;20220;-53
2022/10/05 10:42:42;;;;;;;2.35;1.85;;;;;;;20.72;37.53;100539.69;5109490;28;20331;-54
2022/10/05 10:45:36;;;;;;;1.92;1.83;;;;;;;20.75;38.01;100544.81;5109400;28;20670;-54
2022/10/05 10:48:04;;;;;;;2.55;1.95;;;;;;;20.64;38.42;100534.84;5109870;28;20658;-54
2022/10/05 10:51:13;;;;;;;3.83;2.20;;;;;;;20.70;38.49;100538.94;5113594;28;20211;-54
2022/10/05 10:54:16;;;;;;;2.22;1.85;;;;;;;20.68;38.38;100539.00;5113772;28;20195;-54
2022/10/05 10:56:51;;;;;;;2.25;2.08;;;;;;;20.64;38.35;100537.47;5103027;28;20202;-62
2022/10/05 11:00:06;;;;;;;4.07;2.33;;;;;;;20.48;38.38;100539.22;5113537;28;20190;-62
2022/10/05 11:03:02;;;;;;;2.40;2.30;;;;;;;20.34;38.68;100515.34;5046364;28;20278;-63
2022/10/05 11:05:48;;;;;;;5.28;4.80;;;;;;;20.46;38.95;100527.91;5127508;27;20614;-62
2022/10/05 11:08:49;;;;;;;4.68;4.30;;;;;;;20.47;39.17;100527.81;5132910;27;20217;-61
2022/10/05 11:12:01;;;;;;;5.03;4.63;;;;;;;20.48;39.05;100524.25;5133012;27;20200;-62
2022/10/05 11:14:45;;;;;;;2.40;2.30;;;;;;;20.52;38.58;100524.97;5103597;27;20194;-61
2022/10/05 11:17:30;;;;;;;2.58;2.42;;;;;;;20.47;38.33;100517.28;5131744;27;20194;-61
2022/10/05 11:20:42;;;;;;;6.50;5.13;;;;;;;20.40;38.40;100510.63;5129575;27;20194;-62
2022/10/05 11:23:33;;;;;;;2.55;2.35;;;;;;;20.35;38.23;100499.47;5047756;28;20212;-62
2022/10/05 11:26:19;;;;;;;5.07;4.57;;;;;;;20.49;38.31;100510.13;5021984;28;20200;-62
2022/10/05 11:29:27;;;;;;;2.10;2.00;;;;;;;20.55;38.03;100515.06;5101087;28;20227;-61
2022/10/05 11:32:26;;;;;;;2.45;2.25;;;;;;;20.50;38.00;100508.34;5112796;28;20552;-62
2022/10/05 11:35:19;;;;;;;2.40;2.30;;;;;;;20.50;37.30;100506.56;5112768;28;20255;-61
2022/10/05 11:38:21;;;;;;;3.85;1.92;;;;;;;20.58;37.52;100500.88;5112534;28;20202;-54
2022/10/05 11:41:13;;;;;;;3.08;2.33;;;;;;;20.57;38.17;100496.53;5105922;28;20655;-62
2022/10/05 11:44:15;;;;;;;2.17;2.08;;;;;;;20.50;38.54;100503.09;5112241;28;20191;-62
2022/10/05 11:46:52;;;;;;;2.15;1.95;;;;;;;20.52;38.05;100499.44;5112138;28;20579;-54
2022/10/05 11:49:34;;;;;;;2.25;2.15;;;;;;;20.53;38.07;100505.56;5111592;28;20197;-54
2022/10/05 11:52:10;;;;;;;2.10;2.00;;;;;;;20.65;38.02;100496.97;5111993;28;20765;-54
2022/10/05 11:54:47;;;;;;;2.13;2.00;;;;;;;20.54;37.65;100486.16;5112267;28;20229;-54
2022/10/05 11:57:19;;;;;;;2.40;2.20;;;;;;;20.43;37.89;100492.00;5112133;28;20203;-61
2022/10/05 11:59:54;;;;;;;2.28;2.17;;;;;;;20.37;38.02;100483.56;5112012;28;20197;-61
2022/10/05 12:02:41;;;;;;;1.88;1.77;;;;;;;20.49;38.02;100489.03;5111714;28;20218;-54
2022/10/05 12:05:17;;;;;;;2.55;2.38;;;;;;;20.57;38.44;100480.69;5111472;28;20569;-54
2022/10/05 12:07:52;;;;;;;4.20;2.10;;;;;;;20.62;38.11;100481.31;5111191;28;20198;-54
2022/10/05 12:10:31;;;;;;;2.30;2.20;;;;;;;20.69;37.61;100482.66;5111623;28;20194;-62
2022/10/05 12:13:23;;;;;;;2.15;2.05;;;;;;;20.73;37.65;100478.94;5111695;28;20211;-61
2022/10/05 12:15:57;;;;;;;2.75;2.40;;;;;;;20.67;37.97;100477.47;5111492;28;20206;-61
2022/10/05 12:18:45;;;;;;;3.08;1.88;;;;;;;20.63;37.54;100465.41;5112014;28;20199;-54
2022/10/05 12:21:22;;;;;;;3.70;2.55;;;;;;;20.64;37.29;100467.09;5110872;28;20206;-54
2022/10/05 12:23:55;;;;;;;3.13;2.83;;;;;;;20.52;37.71;100464.28;5111369;28;20222;-54
2022/10/05 12:26:26;;;;;;;3.33;2.60;;;;;;;20.48;37.50;100463.59;5111677;28;20205;-62